createdAt,value
2022-10-31T00:00:48.557Z,13.00
2022-10-31T00:03:33.852Z,14.48
2022-10-31T00:06:19.311Z,16.58
2022-10-31T00:09:05.780Z,23.15
2022-10-31T00:11:51.083Z,15.02
2022-10-31T00:14:36.324Z,16.20
2022-10-31T00:17:21.550Z,23.55
2022-10-31T00:20:07.249Z,18.70
2022-10-31T00:22:52.540Z,21.65
2022-10-31T00:25:39.676Z,20.88
2022-10-31T00:28:25.019Z,28.38
2022-10-31T00:31:12.469Z,20.73
2022-10-31T00:33:58.693Z,16.85
2022-10-31T00:36:43.969Z,19.38
2022-10-31T00:39:29.339Z,18.77
2022-10-31T00:42:14.192Z,20.83
2022-10-31T00:44:59.211Z,10.98
2022-10-31T00:47:44.112Z,24.38
2022-10-31T00:50:29.032Z,16.92
2022-10-31T00:53:14.174Z,25.27
2022-10-31T00:55:59.540Z,13.65
2022-10-31T00:58:44.788Z,25.08
2022-10-31T01:01:30.087Z,24.15
2022-10-31T01:04:15.187Z,25.95
2022-10-31T01:07:00.317Z,24.35
2022-10-31T01:09:45.250Z,18.13
2022-10-31T01:12:30.201Z,15.00
2022-10-31T01:15:20.571Z,17.45
2022-10-31T01:18:05.557Z,22.00
2022-10-31T01:21:07.924Z,21.25
2022-10-31T01:23:57.212Z,19.63
2022-10-31T01:26:42.129Z,30.03
2022-10-31T01:29:27.277Z,17.48
2022-10-31T01:32:12.577Z,21.40
2022-10-31T01:34:57.993Z,14.90
2022-10-31T01:37:42.827Z,25.73
2022-10-31T01:40:30.731Z,18.45
2022-10-31T01:43:16.213Z,23.88
2022-10-31T01:46:01.121Z,34.60
2022-10-31T01:48:47.140Z,22.40
2022-10-31T01:51:38.222Z,19.00
2022-10-31T01:54:29.463Z,16.85
2022-10-31T01:57:16.306Z,20.55
2022-10-31T02:00:07.296Z,23.10
2022-10-31T02:02:52.922Z,30.67
2022-10-31T02:05:38.469Z,18.77
2022-10-31T02:08:32.143Z,25.08
2022-10-31T02:11:17.451Z,20.73
2022-10-31T02:14:04.124Z,16.55
2022-10-31T02:16:48.913Z,30.05
2022-10-31T02:19:58.609Z,18.80
2022-10-31T02:22:59.076Z,15.60
2022-10-31T02:26:02.904Z,18.33
2022-10-31T02:29:39.721Z,21.02
2022-10-31T02:33:00.948Z,14.27
2022-10-31T02:36:03.220Z,20.92
2022-10-31T02:39:03.026Z,18.45
2022-10-31T02:41:59.915Z,21.52
2022-10-31T02:45:01.805Z,16.95
2022-10-31T02:47:50.450Z,19.08
2022-10-31T02:50:40.786Z,23.98
2022-10-31T02:53:26.407Z,20.73
2022-10-31T02:56:17.747Z,16.42
2022-10-31T02:59:05.645Z,26.58
2022-10-31T03:02:08.705Z,22.67
2022-10-31T03:05:29.146Z,19.60
2022-10-31T03:08:22.587Z,16.63
2022-10-31T03:11:09.218Z,17.58
2022-10-31T03:14:27.762Z,16.95
2022-10-31T03:17:26.817Z,21.98
2022-10-31T03:20:12.110Z,22.15
2022-10-31T03:22:59.329Z,27.73
2022-10-31T03:25:45.051Z,21.42
2022-10-31T03:28:32.992Z,17.90
2022-10-31T03:31:20.367Z,22.63
2022-10-31T03:34:07.066Z,15.70
2022-10-31T03:36:56.818Z,19.40
2022-10-31T03:42:32.490Z,26.58
2022-10-31T03:45:30.949Z,17.25
2022-10-31T03:48:19.276Z,17.70
2022-10-31T03:51:16.043Z,21.88
2022-10-31T03:54:11.917Z,20.65
2022-10-31T03:57:20.113Z,23.90
2022-10-31T04:00:11.882Z,21.25
2022-10-31T04:03:10.860Z,17.75
2022-10-31T04:05:59.651Z,23.55
2022-10-31T04:08:50.789Z,15.98
2022-10-31T04:11:39.243Z,15.60
2022-10-31T04:14:26.742Z,29.45
2022-10-31T04:17:15.832Z,20.50
2022-10-31T04:20:01.899Z,16.20
2022-10-31T04:22:46.843Z,10.43
2022-10-31T04:25:32.130Z,9.35
2022-10-31T04:28:17.187Z,7.90
2022-10-31T04:31:02.547Z,8.82
2022-10-31T04:33:47.811Z,11.07
2022-10-31T04:36:33.098Z,9.18
2022-10-31T04:39:21.311Z,5.65
2022-10-31T04:42:08.835Z,9.95
2022-10-31T04:44:53.743Z,8.13
2022-10-31T04:47:38.807Z,8.43
2022-10-31T04:50:23.779Z,6.60
2022-10-31T04:53:08.857Z,7.55
2022-10-31T04:55:54.004Z,9.80
2022-10-31T04:58:39.210Z,9.18
2022-10-31T05:01:24.255Z,17.05
2022-10-31T05:04:09.562Z,15.35
2022-10-31T05:06:54.821Z,14.75
2022-10-31T05:09:39.743Z,13.00
2022-10-31T05:12:25.116Z,16.60
2022-10-31T05:15:10.046Z,14.10
2022-10-31T05:17:56.310Z,18.75
2022-10-31T05:20:41.223Z,14.85
2022-10-31T05:23:26.103Z,13.35
2022-10-31T05:26:11.202Z,19.13
2022-10-31T05:28:56.436Z,15.80
2022-10-31T05:31:41.642Z,21.17
2022-10-31T05:34:26.584Z,17.00
2022-10-31T05:37:11.813Z,24.40
2022-10-31T05:39:56.630Z,16.95
2022-10-31T05:42:42.484Z,12.70
2022-10-31T05:45:27.829Z,10.00
2022-10-31T05:48:13.095Z,13.15
2022-10-31T05:50:58.466Z,12.13
2022-10-31T05:53:43.319Z,11.02
2022-10-31T05:56:28.280Z,21.85
2022-10-31T05:59:13.186Z,19.83
2022-10-31T06:01:58.373Z,19.70
2022-10-31T06:04:43.704Z,15.90
2022-10-31T06:07:33.582Z,23.60
2022-10-31T06:13:07.459Z,18.70
2022-10-31T06:15:52.297Z,20.05
2022-10-31T06:18:37.301Z,19.05
2022-10-31T06:21:22.548Z,12.15
2022-10-31T06:24:08.041Z,6.50
2022-10-31T06:26:53.320Z,9.13
2022-10-31T06:29:38.339Z,7.03
2022-10-31T06:32:24.025Z,6.38
2022-10-31T06:35:09.348Z,18.83
2022-10-31T06:37:54.977Z,8.18
2022-10-31T06:40:39.982Z,13.25
2022-10-31T06:43:24.698Z,13.15
2022-10-31T06:46:09.811Z,9.18
2022-10-31T06:48:54.729Z,12.88
2022-10-31T06:51:39.726Z,15.30
2022-10-31T06:54:25.119Z,16.13
2022-10-31T06:57:10.130Z,18.70
2022-10-31T06:59:55.234Z,22.33
2022-10-31T07:02:40.255Z,16.65
2022-10-31T07:05:26.628Z,22.88
2022-10-31T07:08:13.964Z,12.85
2022-10-31T07:10:59.027Z,22.98
2022-10-31T07:13:44.647Z,18.52
2022-10-31T07:16:29.850Z,22.05
2022-10-31T07:19:14.955Z,19.80
2022-10-31T07:21:59.806Z,13.32
2022-10-31T07:24:44.914Z,19.05
2022-10-31T07:27:29.766Z,22.88
2022-10-31T07:30:15.769Z,16.30
2022-10-31T07:33:00.845Z,15.55
2022-10-31T07:35:46.044Z,16.80
2022-10-31T07:38:36.580Z,15.60
2022-10-31T07:41:22.404Z,10.70
2022-10-31T07:44:07.229Z,12.93
2022-10-31T07:46:52.500Z,13.82
2022-10-31T07:49:37.558Z,13.38
2022-10-31T07:52:22.813Z,12.18
2022-10-31T07:55:08.700Z,13.98
2022-10-31T07:58:04.603Z,11.63
2022-10-31T08:00:49.942Z,13.60
2022-10-31T08:03:35.070Z,18.00
2022-10-31T08:06:20.196Z,10.73
2022-10-31T08:09:05.548Z,12.65
2022-10-31T08:11:50.495Z,11.25
2022-10-31T08:14:42.039Z,15.20
2022-10-31T08:17:27.512Z,10.65
2022-10-31T08:20:12.702Z,10.25
2022-10-31T08:22:59.982Z,11.20
2022-10-31T08:25:47.797Z,11.10
2022-10-31T08:28:33.348Z,8.10
2022-10-31T08:31:18.258Z,13.23
2022-10-31T08:34:03.404Z,14.80
2022-10-31T08:36:48.598Z,9.27
2022-10-31T08:39:33.454Z,12.70
2022-10-31T08:42:18.415Z,12.50
2022-10-31T08:45:03.745Z,10.55
2022-10-31T08:47:48.706Z,11.00
2022-10-31T08:50:35.485Z,9.50
2022-10-31T08:53:20.677Z,14.05
2022-10-31T08:56:06.091Z,11.00
2022-10-31T08:58:53.593Z,10.85
2022-10-31T09:01:38.973Z,20.88
2022-10-31T09:04:24.468Z,17.33
2022-10-31T09:07:25.059Z,23.45
2022-10-31T09:10:10.333Z,18.42
2022-10-31T09:12:57.369Z,23.73
2022-10-31T09:15:44.731Z,28.83
2022-10-31T09:18:30.500Z,25.77
2022-10-31T09:21:15.910Z,15.55
2022-10-31T09:24:01.111Z,14.48
2022-10-31T09:26:46.288Z,11.80
2022-10-31T09:29:31.563Z,12.27
2022-10-31T09:32:16.427Z,13.45
2022-10-31T09:35:01.664Z,15.73
2022-10-31T09:37:46.701Z,14.18
2022-10-31T09:40:50.002Z,14.43
2022-10-31T09:43:47.010Z,11.00
2022-10-31T09:46:44.108Z,13.80
2022-10-31T09:49:52.511Z,15.50
2022-10-31T09:52:41.993Z,13.30
2022-10-31T09:55:44.091Z,14.15
2022-10-31T09:58:33.031Z,15.88
2022-10-31T10:01:29.670Z,15.73
2022-10-31T10:04:33.592Z,12.02
2022-10-31T10:07:29.809Z,15.68
2022-10-31T10:10:37.332Z,16.58
2022-10-31T10:13:31.603Z,9.65
2022-10-31T10:16:55.924Z,16.02
2022-10-31T10:19:53.197Z,10.82
2022-10-31T10:22:55.431Z,9.27
2022-10-31T10:25:42.626Z,10.05
2022-10-31T10:28:39.000Z,13.68
2022-10-31T10:31:36.075Z,11.65
2022-10-31T10:34:21.223Z,13.25
2022-10-31T10:37:25.048Z,10.68
2022-10-31T10:40:29.797Z,11.30
2022-10-31T10:43:37.374Z,7.05
2022-10-31T10:46:45.873Z,10.05
2022-10-31T10:49:44.175Z,10.60
2022-10-31T10:52:50.748Z,10.07
2022-10-31T10:55:48.288Z,8.15
2022-10-31T10:58:33.168Z,9.30
2022-10-31T11:01:18.120Z,9.05
2022-10-31T11:04:04.019Z,15.35
2022-10-31T11:07:07.965Z,8.43
2022-10-31T11:10:05.088Z,10.20
2022-10-31T11:13:24.313Z,10.07
2022-10-31T11:16:16.011Z,15.25
2022-10-31T11:19:13.555Z,9.95
2022-10-31T11:22:15.633Z,7.07
2022-10-31T11:25:00.707Z,11.43
2022-10-31T11:27:47.180Z,5.43
2022-10-31T11:30:43.195Z,7.05
2022-10-31T11:33:48.962Z,7.05
2022-10-31T11:36:37.835Z,14.38
2022-10-31T11:39:24.980Z,7.00
2022-10-31T11:42:10.020Z,5.10
2022-10-31T11:44:56.559Z,9.30
2022-10-31T11:47:47.029Z,5.45
2022-10-31T11:50:39.519Z,7.18
2022-10-31T11:53:34.828Z,9.35
2022-10-31T11:56:19.995Z,7.40
2022-10-31T11:59:16.447Z,7.47
2022-10-31T12:02:02.941Z,7.85
2022-10-31T12:04:55.165Z,8.73
2022-10-31T12:07:40.421Z,10.75
2022-10-31T12:10:42.802Z,6.35
2022-10-31T12:14:10.226Z,6.43
2022-10-31T12:17:01.434Z,4.75
2022-10-31T12:20:00.385Z,14.45
2022-10-31T12:23:09.774Z,5.07
2022-10-31T12:26:00.355Z,12.10
2022-10-31T12:29:10.336Z,6.75
2022-10-31T12:32:26.318Z,5.80
2022-10-31T12:35:11.490Z,10.77
2022-10-31T12:38:21.459Z,7.57
2022-10-31T12:44:30.850Z,5.80
2022-10-31T12:47:15.724Z,4.78
2022-10-31T12:50:03.749Z,6.63
2022-10-31T12:53:00.949Z,6.93
2022-10-31T12:55:49.497Z,6.47
2022-10-31T12:58:52.592Z,10.23
2022-10-31T13:01:50.876Z,4.63
2022-10-31T13:04:54.600Z,6.75
2022-10-31T13:07:49.428Z,6.70
2022-10-31T13:10:44.437Z,4.80
2022-10-31T13:13:41.025Z,4.40
2022-10-31T13:16:31.611Z,5.47
2022-10-31T13:19:41.206Z,5.55
2022-10-31T13:22:32.752Z,6.97
2022-10-31T13:25:33.352Z,5.40
2022-10-31T13:28:39.808Z,6.18
2022-10-31T13:31:24.784Z,7.88
2022-10-31T13:34:26.297Z,3.88
2022-10-31T13:37:23.762Z,6.10
2022-10-31T13:40:42.808Z,4.95
2022-10-31T13:43:39.908Z,5.03
2022-10-31T13:46:34.295Z,7.93
2022-10-31T13:49:31.192Z,4.80
2022-10-31T13:52:27.482Z,9.90
2022-10-31T13:55:37.868Z,6.63
2022-10-31T13:58:31.304Z,5.65
2022-10-31T14:01:23.596Z,4.32
2022-10-31T14:04:24.715Z,9.52
2022-10-31T14:07:13.848Z,6.28
2022-10-31T14:10:07.057Z,5.47
2022-10-31T14:12:52.912Z,12.50
2022-10-31T14:15:42.020Z,8.35
2022-10-31T14:18:37.528Z,5.70
2022-10-31T14:21:25.792Z,7.13
2022-10-31T14:24:34.882Z,7.20
2022-10-31T14:27:26.433Z,5.32
2022-10-31T14:30:17.061Z,4.13
2022-10-31T14:33:13.520Z,8.38
2022-10-31T14:36:26.159Z,12.88
2022-10-31T14:39:24.627Z,8.27
2022-10-31T14:43:03.271Z,13.20
2022-10-31T14:45:54.223Z,9.43
2022-10-31T14:48:55.225Z,7.47
2022-10-31T14:51:45.173Z,7.78
2022-10-31T14:54:35.020Z,13.77
2022-10-31T14:57:28.495Z,6.72
2022-10-31T15:00:22.472Z,13.20
2022-10-31T15:03:18.424Z,8.32
2022-10-31T15:06:13.680Z,8.15
2022-10-31T15:08:58.759Z,7.38
2022-10-31T15:11:43.722Z,6.93
2022-10-31T15:14:31.268Z,7.35
2022-10-31T15:17:16.888Z,5.65
2022-10-31T15:20:02.515Z,13.52
2022-10-31T15:22:48.920Z,7.18
2022-10-31T15:25:35.752Z,9.77
2022-10-31T15:28:26.004Z,5.45
2022-10-31T15:34:13.337Z,12.18
2022-10-31T15:36:58.636Z,7.22
2022-10-31T15:39:44.990Z,8.73
2022-10-31T15:42:36.431Z,10.23
2022-10-31T15:45:27.904Z,7.75
2022-10-31T15:48:19.166Z,9.20
2022-10-31T15:51:04.222Z,10.52
2022-10-31T15:53:53.440Z,7.10
2022-10-31T15:56:38.781Z,9.60
2022-10-31T15:59:28.376Z,11.05
2022-10-31T16:02:18.827Z,10.20
2022-10-31T16:05:17.468Z,9.60
2022-10-31T16:08:02.372Z,6.53
2022-10-31T16:10:47.523Z,9.77
2022-10-31T16:13:38.452Z,12.90
2022-10-31T16:16:39.696Z,12.30
2022-10-31T16:19:36.499Z,11.00
2022-10-31T16:22:29.099Z,14.45
2022-10-31T16:25:18.728Z,12.10
2022-10-31T16:28:27.132Z,7.78
2022-10-31T16:31:16.111Z,10.85
2022-10-31T16:34:26.356Z,11.48
2022-10-31T16:37:12.218Z,11.15
2022-10-31T16:39:57.361Z,11.30
2022-10-31T16:42:44.133Z,9.85
2022-10-31T16:45:31.953Z,9.00
2022-10-31T16:48:23.394Z,9.55
2022-10-31T16:51:08.984Z,8.50
2022-10-31T16:53:54.421Z,12.98
2022-10-31T16:56:39.667Z,16.77
2022-10-31T16:59:24.769Z,16.92
2022-10-31T17:02:15.550Z,18.33
2022-10-31T17:05:00.734Z,18.52
2022-10-31T17:07:46.217Z,15.27
2022-10-31T17:10:31.642Z,17.48
2022-10-31T17:13:23.831Z,16.10
2022-10-31T17:16:09.316Z,14.50
2022-10-31T17:18:54.510Z,15.00
2022-10-31T17:21:40.700Z,15.65
2022-10-31T17:24:25.973Z,16.70
2022-10-31T17:27:11.160Z,21.30
2022-10-31T17:29:56.599Z,19.05
2022-10-31T17:32:42.640Z,19.40
2022-10-31T17:35:27.939Z,24.30
2022-10-31T17:38:13.352Z,21.30
2022-10-31T17:40:58.308Z,18.95
2022-10-31T17:43:43.338Z,19.55
2022-10-31T17:46:28.879Z,23.63
2022-10-31T17:49:13.979Z,21.67
2022-10-31T17:51:59.102Z,23.77
2022-10-31T17:54:44.187Z,24.13
2022-10-31T17:57:33.928Z,26.20
2022-10-31T18:00:21.013Z,31.73
2022-10-31T18:03:07.232Z,26.58
2022-10-31T18:05:57.674Z,24.30
2022-10-31T18:08:43.806Z,28.65
2022-10-31T18:11:29.211Z,31.77
2022-10-31T18:14:14.262Z,24.72
2022-10-31T18:16:59.226Z,24.98
2022-10-31T18:19:45.738Z,27.05
2022-10-31T18:22:31.121Z,28.75
2022-10-31T18:25:16.373Z,24.17
2022-10-31T18:28:02.493Z,37.67
2022-10-31T18:30:47.960Z,30.42
2022-10-31T18:33:33.384Z,29.15
2022-10-31T18:36:18.623Z,35.92
2022-10-31T18:39:03.575Z,28.80
2022-10-31T18:41:48.876Z,27.45
2022-10-31T18:44:34.292Z,28.80
2022-10-31T18:47:19.947Z,28.33
2022-10-31T18:50:05.572Z,29.40
2022-10-31T18:52:50.618Z,31.40
2022-10-31T18:55:45.383Z,34.85
2022-10-31T18:58:33.990Z,28.83
2022-10-31T19:01:21.260Z,24.25
2022-10-31T19:04:06.883Z,25.92
2022-10-31T19:06:51.780Z,20.98
2022-10-31T19:09:37.539Z,29.63
2022-10-31T19:12:22.819Z,28.23
2022-10-31T19:15:08.332Z,25.50
2022-10-31T19:17:53.507Z,34.65
2022-10-31T19:20:39.456Z,34.17
2022-10-31T19:23:25.210Z,24.92
2022-10-31T19:26:10.643Z,31.20
2022-10-31T19:28:56.712Z,22.80
2022-10-31T19:31:42.408Z,27.73
2022-10-31T19:34:27.641Z,26.17
2022-10-31T19:37:12.495Z,28.10
2022-10-31T19:39:57.345Z,27.70
2022-10-31T19:42:42.195Z,26.60
2022-10-31T19:45:27.194Z,23.92
2022-10-31T19:48:12.266Z,19.92
2022-10-31T19:51:18.037Z,25.15
2022-10-31T19:54:03.304Z,29.58
2022-10-31T19:56:48.425Z,24.83
2022-10-31T19:59:38.984Z,26.63
2022-10-31T20:02:24.404Z,24.00
2022-10-31T20:05:09.679Z,34.17
2022-10-31T20:07:56.458Z,28.65
2022-10-31T20:10:42.750Z,20.83
2022-10-31T20:13:30.002Z,24.52
2022-10-31T20:16:16.458Z,25.65
2022-10-31T20:19:02.173Z,25.25
2022-10-31T20:21:47.795Z,25.27
2022-10-31T20:24:33.271Z,27.42
2022-10-31T20:27:18.561Z,23.77
2022-10-31T20:30:04.047Z,33.92
2022-10-31T20:32:50.221Z,17.63
2022-10-31T20:35:40.033Z,23.90
2022-10-31T20:38:25.257Z,15.18
2022-10-31T20:41:11.605Z,19.52
2022-10-31T20:43:58.321Z,24.20
2022-10-31T20:46:43.357Z,16.15
2022-10-31T20:49:30.092Z,19.40
2022-10-31T20:52:15.375Z,17.13
2022-10-31T20:55:00.545Z,16.88
2022-10-31T20:57:45.637Z,18.15
2022-10-31T21:00:30.468Z,16.17
2022-10-31T21:03:15.386Z,13.27
2022-10-31T21:06:01.418Z,17.20
2022-10-31T21:08:47.241Z,14.60
2022-10-31T21:11:32.644Z,15.93
2022-10-31T21:14:17.862Z,11.60
2022-10-31T21:17:04.711Z,11.20
2022-10-31T21:19:49.909Z,7.95
2022-10-31T21:22:34.915Z,8.00
2022-10-31T21:25:20.811Z,10.82
2022-10-31T21:28:06.594Z,13.00
2022-10-31T21:30:52.109Z,11.27
2022-10-31T21:33:37.745Z,15.52
2022-10-31T21:36:23.111Z,15.05
2022-10-31T21:39:09.893Z,11.98
2022-10-31T21:41:54.965Z,15.20
2022-10-31T21:44:40.023Z,16.15
2022-10-31T21:47:25.064Z,9.85
2022-10-31T21:50:10.095Z,11.18
2022-10-31T21:52:55.056Z,9.25
2022-10-31T21:55:39.973Z,5.95
2022-10-31T21:58:24.986Z,7.53
2022-10-31T22:01:10.476Z,11.02
2022-10-31T22:03:55.661Z,10.15
2022-10-31T22:06:40.787Z,9.55
2022-10-31T22:09:26.043Z,9.10
2022-10-31T22:12:11.295Z,19.20
2022-10-31T22:14:56.112Z,5.88
2022-10-31T22:17:41.187Z,2.08
2022-10-31T22:20:26.180Z,2.80
2022-10-31T22:23:11.379Z,4.82
2022-10-31T22:25:56.762Z,8.15
2022-10-31T22:28:47.367Z,6.68
2022-10-31T22:31:33.943Z,6.05
2022-10-31T22:34:19.186Z,12.05
2022-10-31T22:37:04.439Z,14.73
2022-10-31T22:39:49.551Z,11.55
2022-10-31T22:42:34.744Z,16.52
2022-10-31T22:45:19.849Z,13.63
2022-10-31T22:48:05.232Z,14.20
2022-10-31T22:50:50.459Z,15.25
2022-10-31T22:53:36.636Z,11.63
2022-10-31T22:56:23.158Z,16.98
2022-10-31T22:59:12.657Z,16.35
2022-10-31T23:01:58.056Z,21.52
2022-10-31T23:04:43.165Z,13.35
2022-10-31T23:07:32.097Z,18.83
2022-10-31T23:10:18.342Z,9.50
2022-10-31T23:13:22.419Z,8.73
2022-10-31T23:16:08.698Z,11.07
2022-10-31T23:18:53.582Z,10.40
2022-10-31T23:21:58.729Z,12.88
2022-10-31T23:24:46.609Z,15.07
2022-10-31T23:27:31.902Z,18.83
2022-10-31T23:30:17.024Z,20.80
2022-10-31T23:33:02.447Z,20.92
2022-10-31T23:35:47.690Z,26.50
2022-10-31T23:38:32.883Z,26.65
2022-10-31T23:41:18.114Z,23.58
2022-10-31T23:44:03.337Z,24.70
2022-10-31T23:46:48.629Z,30.00
2022-10-31T23:49:33.908Z,22.73
2022-10-31T23:52:19.793Z,30.60
2022-10-31T23:55:05.536Z,24.48
2022-10-31T23:57:50.473Z,24.13
